sensor_id;sensor_type;location;lat;lon;timestamp;pressure;altitude;pressure_sealevel;temperature;humidity
43119;BME280;28729;49.838;8.650;2023-06-01T00:00:02;100024.72;;;15.94;72.38
43119;BME280;28729;49.838;8.650;2023-06-01T00:04:08;100031.91;;;15.90;73.06
43119;BME280;28729;49.838;8.650;2023-06-01T00:08:11;100022.50;;;15.86;73.25
43119;BME280;28729;49.838;8.650;2023-06-01T00:12:12;100018.31;;;15.84;73.83
43119;BME280;28729;49.838;8.650;2023-06-01T00:16:15;100021.91;;;15.79;73.45
43119;BME280;28729;49.838;8.650;2023-06-01T00:20:17;100013.31;;;15.76;72.71
43119;BME280;28729;49.838;8.650;2023-06-01T00:24:20;100017.22;;;15.69;72.81
43119;BME280;28729;49.838;8.650;2023-06-01T00:28:22;100014.72;;;15.68;73.66
43119;BME280;28729;49.838;8.650;2023-06-01T00:32:24;100013.00;;;15.67;73.31
43119;BME280;28729;49.838;8.650;2023-06-01T00:36:27;100016.34;;;15.64;73.33
43119;BME280;28729;49.838;8.650;2023-06-01T00:40:29;100018.59;;;15.62;73.22
43119;BME280;28729;49.838;8.650;2023-06-01T00:44:31;100005.81;;;15.56;73.91
43119;BME280;28729;49.838;8.650;2023-06-01T00:48:32;100005.81;;;15.56;72.99
43119;BME280;28729;49.838;8.650;2023-06-01T00:52:35;100005.53;;;15.62;71.84
43119;BME280;28729;49.838;8.650;2023-06-01T00:56:39;100000.81;;;15.63;72.77
43119;BME280;28729;49.838;8.650;2023-06-01T01:00:41;100005.53;;;15.62;71.85
43119;BME280;28729;49.838;8.650;2023-06-01T01:04:43;99997.72;;;15.64;72.17
43119;BME280;28729;49.838;8.650;2023-06-01T01:08:55;100005.25;;;15.64;71.83
43119;BME280;28729;49.838;8.650;2023-06-01T01:17:21;100010.78;;;15.64;72.70
43119;BME280;28729;49.838;8.650;2023-06-01T01:21:31;100002.75;;;15.62;71.82
43119;BME280;28729;49.838;8.650;2023-06-01T01:29:40;100003.88;;;15.56;72.31
43119;BME280;28729;49.838;8.650;2023-06-01T01:33:46;100002.19;;;15.55;72.31
43119;BME280;28729;49.838;8.650;2023-06-01T01:37:53;100000.53;;;15.54;72.05
43119;BME280;28729;49.838;8.650;2023-06-01T01:41:58;99997.47;;;15.50;71.96
43119;BME280;28729;49.838;8.650;2023-06-01T01:46:07;99994.97;;;15.49;71.68
43119;BME280;28729;49.838;8.650;2023-06-01T01:50:13;99981.09;;;15.49;71.93
43119;BME280;28729;49.838;8.650;2023-06-01T01:54:18;99988.59;;;15.48;71.55
43119;BME280;28729;49.838;8.650;2023-06-01T01:58:23;99985.25;;;15.46;71.61
43119;BME280;28729;49.838;8.650;2023-06-01T02:02:25;99977.22;;;15.45;71.82
43119;BME280;28729;49.838;8.650;2023-06-01T02:06:27;99982.75;;;15.45;71.20
43119;BME280;28729;49.838;8.650;2023-06-01T02:10:29;99976.91;;;15.46;71.61
43119;BME280;28729;49.838;8.650;2023-06-01T02:14:31;99974.69;;;15.43;71.33
43119;BME280;28729;49.838;8.650;2023-06-01T02:18:33;99976.94;;;15.41;71.61
43119;BME280;28729;49.838;8.650;2023-06-01T02:22:34;99971.38;;;15.41;72.27
43119;BME280;28729;49.838;8.650;2023-06-01T02:26:36;99971.09;;;15.48;71.87
43119;BME280;28729;49.838;8.650;2023-06-01T02:30:38;99969.13;;;15.43;72.05
43119;BME280;28729;49.838;8.650;2023-06-01T02:34:40;99965.00;;;15.41;72.53
43119;BME280;28729;49.838;8.650;2023-06-01T02:38:42;99969.69;;;15.40;72.54
43119;BME280;28729;49.838;8.650;2023-06-01T02:42:44;99966.38;;;15.38;72.92
43119;BME280;28729;49.838;8.650;2023-06-01T02:46:46;99970.81;;;15.34;73.33
43119;BME280;28729;49.838;8.650;2023-06-01T02:50:48;99967.50;;;15.32;73.60
43119;BME280;28729;49.838;8.650;2023-06-01T02:54:50;99961.38;;;15.25;74.11
43119;BME280;28729;49.838;8.650;2023-06-01T02:59:14;99965.84;;;15.26;74.35
43119;BME280;28729;49.838;8.650;2023-06-01T03:03:22;99956.38;;;15.27;73.72
43119;BME280;28729;49.838;8.650;2023-06-01T03:07:24;99960.53;;;15.24;73.63
43119;BME280;28729;49.838;8.650;2023-06-01T03:11:28;99963.63;;;15.23;73.75
43119;BME280;28729;49.838;8.650;2023-06-01T03:15:30;99960.28;;;15.21;73.87
43119;BME280;28729;49.838;8.650;2023-06-01T03:19:31;99959.16;;;15.22;73.86
43119;BME280;28729;49.838;8.650;2023-06-01T03:23:36;99963.88;;;15.26;73.36
43119;BME280;28729;49.838;8.650;2023-06-01T03:27:39;99965.53;;;15.27;73.19
43119;BME280;28729;49.838;8.650;2023-06-01T03:31:42;99963.03;;;15.31;72.67
43119;BME280;28729;49.838;8.650;2023-06-01T03:35:44;99961.09;;;15.32;72.98
43119;BME280;28729;49.838;8.650;2023-06-01T03:39:46;99965.81;;;15.31;73.17
43119;BME280;28729;49.838;8.650;2023-06-01T03:43:49;99968.59;;;15.31;72.87
43119;BME280;28729;49.838;8.650;2023-06-01T03:47:52;99966.38;;;15.28;73.50
43119;BME280;28729;49.838;8.650;2023-06-01T03:51:54;99967.50;;;15.27;73.46
43119;BME280;28729;49.838;8.650;2023-06-01T03:55:56;99974.72;;;15.23;74.10
43119;BME280;28729;49.838;8.650;2023-06-01T04:00:05;99974.72;;;15.23;74.07
43119;BME280;28729;49.838;8.650;2023-06-01T04:04:28;99975.78;;;15.17;74.87
43119;BME280;28729;49.838;8.650;2023-06-01T04:08:30;99979.69;;;15.11;75.42
43119;BME280;28729;49.838;8.650;2023-06-01T04:12:32;99976.34;;;15.03;76.34
43119;BME280;28729;49.838;8.650;2023-06-01T04:16:34;99980.78;;;14.99;76.33
43119;BME280;28729;49.838;8.650;2023-06-01T04:20:37;99992.69;;;14.95;77.50
43119;BME280;28729;49.838;8.650;2023-06-01T04:24:39;99994.38;;;14.91;77.87
43119;BME280;28729;49.838;8.650;2023-06-01T04:28:42;99991.28;;;14.87;77.66
43119;BME280;28729;49.838;8.650;2023-06-01T04:32:47;99996.28;;;14.85;78.44
43119;BME280;28729;49.838;8.650;2023-06-01T04:36:55;99996.56;;;14.84;78.67
43119;BME280;28729;49.838;8.650;2023-06-01T04:40:57;100004.59;;;14.80;79.73
43119;BME280;28729;49.838;8.650;2023-06-01T04:45:00;100010.69;;;14.77;80.34
43119;BME280;28729;49.838;8.650;2023-06-01T04:49:06;100008.75;;;14.77;80.26
43119;BME280;28729;49.838;8.650;2023-06-01T04:53:09;100010.69;;;14.77;80.59
43119;BME280;28729;49.838;8.650;2023-06-01T04:57:13;100013.47;;;14.77;80.88
43119;BME280;28729;49.838;8.650;2023-06-01T05:01:15;100008.50;;;14.79;80.91
43119;BME280;28729;49.838;8.650;2023-06-01T05:05:19;100020.69;;;14.83;81.67
43119;BME280;28729;49.838;8.650;2023-06-01T05:09:22;100010.16;;;14.85;81.16
43119;BME280;28729;49.838;8.650;2023-06-01T05:13:25;100014.06;;;14.89;81.66
43119;BME280;28729;49.838;8.650;2023-06-01T05:17:27;100005.19;;;14.92;81.37
43119;BME280;28729;49.838;8.650;2023-06-01T05:21:32;100007.41;;;14.95;81.36
43119;BME280;28729;49.838;8.650;2023-06-01T05:25:36;100011.03;;;15.01;82.33
43119;BME280;28729;49.838;8.650;2023-06-01T05:29:38;100003.00;;;15.10;81.71
43119;BME280;28729;49.838;8.650;2023-06-01T05:33:42;100007.47;;;15.21;81.28
43119;BME280;28729;49.838;8.650;2023-06-01T05:37:44;100006.06;;;15.28;81.49
43119;BME280;28729;49.838;8.650;2023-06-01T05:41:48;100006.66;;;15.36;80.80
43119;BME280;28729;49.838;8.650;2023-06-01T05:45:51;100012.75;;;15.43;82.96
43119;BME280;28729;49.838;8.650;2023-06-01T05:49:53;100013.00;;;15.46;84.15
43119;BME280;28729;49.838;8.650;2023-06-01T05:53:56;100022.75;;;15.49;nan
43119;BME280;28729;49.838;8.650;2023-06-01T05:57:58;100022.50;;;15.56;85.07
43119;BME280;28729;49.838;8.650;2023-06-01T06:02:02;100025.50;;;15.64;84.11
43119;BME280;28729;49.838;8.650;2023-06-01T06:06:04;100029.44;;;15.79;83.96
43119;BME280;28729;49.838;8.650;2023-06-01T06:10:08;100023.84;;;15.94;82.42
43119;BME280;28729;49.838;8.650;2023-06-01T06:14:11;100023.00;;;16.14;82.06
43119;BME280;28729;49.838;8.650;2023-06-01T06:18:13;100023.81;;;16.25;81.71
43119;BME280;28729;49.838;8.650;2023-06-01T06:22:16;100019.59;;;16.37;80.72
43119;BME280;28729;49.838;8.650;2023-06-01T06:26:18;100014.78;;;16.53;79.16
43119;BME280;28729;49.838;8.650;2023-06-01T06:30:21;100007.75;;;16.71;78.85
43119;BME280;28729;49.838;8.650;2023-06-01T06:34:25;100009.63;;;16.91;78.91
43119;BME280;28729;49.838;8.650;2023-06-01T06:38:33;100014.50;;;17.15;78.04
43119;BME280;28729;49.838;8.650;2023-06-01T06:42:37;100015.19;;;17.36;77.50
43119;BME280;28729;49.838;8.650;2023-06-01T06:46:40;100019.72;;;17.61;76.97
43119;BME280;28729;49.838;8.650;2023-06-01T06:50:44;100016.19;;;17.84;75.93
43119;BME280;28729;49.838;8.650;2023-06-01T06:54:50;100025.16;;;18.10;75.25
43119;BME280;28729;49.838;8.650;2023-06-01T06:58:52;100027.72;;;18.31;73.32
43119;BME280;28729;49.838;8.650;2023-06-01T07:03:07;100023.88;;;18.51;72.22
43119;BME280;28729;49.838;8.650;2023-06-01T07:07:11;100024.94;;;18.79;71.43
43119;BME280;28729;49.838;8.650;2023-06-01T07:11:16;100026.56;;;19.04;69.71
43119;BME280;28729;49.838;8.650;2023-06-01T07:15:18;100029.34;;;19.23;69.49
43119;BME280;28729;49.838;8.650;2023-06-01T07:19:22;100031.84;;;19.43;68.35
43119;BME280;28729;49.838;8.650;2023-06-01T07:23:27;100022.16;;;19.73;66.75
43119;BME280;28729;49.838;8.650;2023-06-01T07:27:32;100024.81;;;19.97;66.10
43119;BME280;28729;49.838;8.650;2023-06-01T07:31:38;100020.91;;;20.26;65.12
43119;BME280;28729;49.838;8.650;2023-06-01T07:35:41;100021.25;;;20.52;64.01
43119;BME280;28729;49.838;8.650;2023-06-01T07:39:45;100020.44;;;20.65;63.97
43119;BME280;28729;49.838;8.650;2023-06-01T07:43:47;100013.44;;;20.90;63.34
43119;BME280;28729;49.838;8.650;2023-06-01T07:47:49;100016.63;;;21.11;60.70
43119;BME280;28729;49.838;8.650;2023-06-01T07:51:53;100003.22;;;21.22;60.11
43119;BME280;28729;49.838;8.650;2023-06-01T07:55:55;100007.31;;;21.38;59.34
43119;BME280;28729;49.838;8.650;2023-06-01T08:00:00;100013.41;;;21.54;56.20
43119;BME280;28729;49.838;8.650;2023-06-01T08:04:10;100008.28;;;21.56;57.64
43119;BME280;28729;49.838;8.650;2023-06-01T08:08:18;100004.97;;;21.77;55.93
43119;BME280;28729;49.838;8.650;2023-06-01T08:12:23;100000.16;;;22.00;56.31
43119;BME280;28729;49.838;8.650;2023-06-01T08:16:29;100002.88;;;22.14;52.25
43119;BME280;28729;49.838;8.650;2023-06-01T08:20:33;100009.56;;;22.26;51.88
43119;BME280;28729;49.838;8.650;2023-06-01T08:24:40;100010.50;;;22.53;52.36
43119;BME280;28729;49.838;8.650;2023-06-01T08:28:44;100001.66;;;22.86;50.93
43119;BME280;28729;49.838;8.650;2023-06-01T08:32:54;99999.91;;;22.98;48.23
43119;BME280;28729;49.838;8.650;2023-06-01T08:36:58;99998.78;;;23.08;48.52
43119;BME280;28729;49.838;8.650;2023-06-01T08:41:17;99998.75;;;23.26;47.89
43119;BME280;28729;49.838;8.650;2023-06-01T08:45:19;99990.16;;;23.48;46.22
43119;BME280;28729;49.838;8.650;2023-06-01T08:49:30;99990.97;;;23.66;45.51
43119;BME280;28729;49.838;8.650;2023-06-01T08:53:33;99984.53;;;23.65;44.13
43119;BME280;28729;49.838;8.650;2023-06-01T08:57:40;99985.00;;;23.85;44.23
43119;BME280;28729;49.838;8.650;2023-06-01T09:01:42;99980.16;;;24.03;43.86
43119;BME280;28729;49.838;8.650;2023-06-01T09:05:50;99974.44;;;24.29;42.42
43119;BME280;28729;49.838;8.650;2023-06-01T09:09:54;99976.38;;;24.46;43.31
43119;BME280;28729;49.838;8.650;2023-06-01T09:13:58;99960.97;;;24.73;42.65
43119;BME280;28729;49.838;8.650;2023-06-01T09:18:09;99963.06;;;25.06;42.01
43119;BME280;28729;49.838;8.650;2023-06-01T09:22:16;99962.69;;;25.16;39.83
43119;BME280;28729;49.838;8.650;2023-06-01T09:26:18;99961.78;;;25.24;39.91
43119;BME280;28729;49.838;8.650;2023-06-01T09:30:39;99966.44;;;25.62;38.54
43119;BME280;28729;49.838;8.650;2023-06-01T09:34:44;99961.50;;;25.71;38.69
43119;BME280;28729;49.838;8.650;2023-06-01T09:38:49;99953.28;;;25.78;37.95
43119;BME280;28729;49.838;8.650;2023-06-01T09:42:53;99950.19;;;25.92;37.46
43119;BME280;28729;49.838;8.650;2023-06-01T09:47:01;99953.16;;;26.08;38.34
43119;BME280;28729;49.838;8.650;2023-06-01T09:51:20;99950.13;;;26.25;36.40
43119;BME280;28729;49.838;8.650;2023-06-01T09:55:27;99946.00;;;26.23;37.20
43119;BME280;28729;49.838;8.650;2023-06-01T09:59:45;99949.88;;;26.43;36.93
43119;BME280;28729;49.838;8.650;2023-06-01T10:03:49;99945.66;;;26.73;36.35
43119;BME280;28729;49.838;8.650;2023-06-01T10:07:55;99938.88;;;27.02;35.21
43119;BME280;28729;49.838;8.650;2023-06-01T10:11:58;99940.66;;;27.07;34.34
43119;BME280;28729;49.838;8.650;2023-06-01T10:16:01;99927.56;;;27.02;34.35
43119;BME280;28729;49.838;8.650;2023-06-01T10:20:09;99927.56;;;27.02;34.47
43119;BME280;28729;49.838;8.650;2023-06-01T10:24:14;99923.88;;;27.26;34.66
43119;BME280;28729;49.838;8.650;2023-06-01T10:28:25;99925.25;;;27.61;34.09
43119;BME280;28729;49.838;8.650;2023-06-01T10:41:27;99907.50;;;27.92;33.46
43119;BME280;28729;49.838;8.650;2023-06-01T10:45:39;99919.03;;;28.15;32.17
43119;BME280;28729;49.838;8.650;2023-06-01T10:53:51;99895.72;;;28.22;31.58
43119;BME280;28729;49.838;8.650;2023-06-01T10:58:21;99895.53;;;27.99;30.80
43119;BME280;28729;49.838;8.650;2023-06-01T11:02:34;99889.78;;;28.11;31.98
43119;BME280;28729;49.838;8.650;2023-06-01T11:06:39;99893.97;;;28.49;30.77
43119;BME280;28729;49.838;8.650;2023-06-01T11:10:57;99885.63;;;28.40;31.27
43119;BME280;28729;49.838;8.650;2023-06-01T11:15:09;99888.78;;;28.35;31.56
43119;BME280;28729;49.838;8.650;2023-06-01T11:19:19;99886.94;;;28.43;30.80
43119;BME280;28729;49.838;8.650;2023-06-01T11:23:22;99882.19;;;28.47;31.79
43119;BME280;28729;49.838;8.650;2023-06-01T11:27:25;99873.38;;;28.68;30.87
43119;BME280;28729;49.838;8.650;2023-06-01T11:31:39;99882.03;;;28.94;31.08
43119;BME280;28729;49.838;8.650;2023-06-01T11:36:02;99868.94;;;29.25;31.07
43119;BME280;28729;49.838;8.650;2023-06-01T11:40:17;99860.66;;;29.59;30.95
43119;BME280;28729;49.838;8.650;2023-06-01T11:44:21;99865.06;;;29.56;30.51
43119;BME280;28729;49.838;8.650;2023-06-01T11:48:24;99859.75;;;29.74;29.45
43119;BME280;28729;49.838;8.650;2023-06-01T11:52:28;99857.88;;;29.82;29.12
43119;BME280;28729;49.838;8.650;2023-06-01T11:56:34;99847.75;;;29.84;28.72
43119;BME280;28729;49.838;8.650;2023-06-01T12:00:46;99846.25;;;29.67;28.74
43119;BME280;28729;49.838;8.650;2023-06-01T12:05:01;99847.22;;;29.56;27.69
43119;BME280;28729;49.838;8.650;2023-06-01T12:09:09;99844.84;;;29.38;28.47
43119;BME280;28729;49.838;8.650;2023-06-01T12:13:11;99840.75;;;29.78;28.48
43119;BME280;28729;49.838;8.650;2023-06-01T12:17:14;99837.09;;;30.54;26.94
43119;BME280;28729;49.838;8.650;2023-06-01T12:21:17;99833.00;;;31.42;26.55
43119;BME280;28729;49.838;8.650;2023-06-01T12:25:22;99830.16;;;32.38;25.85
43119;BME280;28729;49.838;8.650;2023-06-01T12:29:38;99822.59;;;33.65;24.41
43119;BME280;28729;49.838;8.650;2023-06-01T12:33:45;99821.72;;;34.61;23.72
43119;BME280;28729;49.838;8.650;2023-06-01T12:38:17;99813.38;;;35.13;21.72
43119;BME280;28729;49.838;8.650;2023-06-01T12:42:36;99804.69;;;35.91;21.63
43119;BME280;28729;49.838;8.650;2023-06-01T12:46:39;99797.34;;;36.72;20.80
43119;BME280;28729;49.838;8.650;2023-06-01T12:50:43;99796.19;;;36.97;19.67
43119;BME280;28729;49.838;8.650;2023-06-01T12:54:47;99790.03;;;36.99;19.78
43119;BME280;28729;49.838;8.650;2023-06-01T12:58:52;99786.56;;;37.69;18.80
43119;BME280;28729;49.838;8.650;2023-06-01T13:02:56;99781.34;;;37.87;17.75
43119;BME280;28729;49.838;8.650;2023-06-01T13:06:59;99764.84;;;38.15;17.38
43119;BME280;28729;49.838;8.650;2023-06-01T13:11:01;99767.97;;;38.24;16.59
43119;BME280;28729;49.838;8.650;2023-06-01T13:15:04;99770.94;;;38.40;16.94
43119;BME280;28729;49.838;8.650;2023-06-01T13:19:06;99761.06;;;38.81;16.04
43119;BME280;28729;49.838;8.650;2023-06-01T13:23:12;99755.03;;;38.95;14.88
43119;BME280;28729;49.838;8.650;2023-06-01T13:27:14;99763.09;;;38.64;15.19
43119;BME280;28729;49.838;8.650;2023-06-01T13:31:18;99755.09;;;38.72;15.42
43119;BME280;28729;49.838;8.650;2023-06-01T13:35:24;99756.13;;;38.82;15.90
43119;BME280;28729;49.838;8.650;2023-06-01T13:39:26;99747.22;;;39.49;15.69
43119;BME280;28729;49.838;8.650;2023-06-01T13:43:31;99745.06;;;39.69;15.22
43119;BME280;28729;49.838;8.650;2023-06-01T13:47:33;99748.22;;;40.07;13.41
43119;BME280;28729;49.838;8.650;2023-06-01T13:51:38;99744.63;;;40.20;14.87
43119;BME280;28729;49.838;8.650;2023-06-01T13:55:40;99727.94;;;41.11;14.07
43119;BME280;28729;49.838;8.650;2023-06-01T13:59:44;99714.97;;;41.54;13.90
43119;BME280;28729;49.838;8.650;2023-06-01T14:03:48;99712.16;;;41.89;14.12
43119;BME280;28729;49.838;8.650;2023-06-01T14:07:50;99711.63;;;42.03;13.04
43119;BME280;28729;49.838;8.650;2023-06-01T14:11:55;99713.13;;;42.08;12.76
43119;BME280;28729;49.838;8.650;2023-06-01T14:15:57;99709.88;;;42.06;13.04
43119;BME280;28729;49.838;8.650;2023-06-01T14:20:00;99705.25;;;42.96;13.08
43119;BME280;28729;49.838;8.650;2023-06-01T14:24:04;99700.09;;;43.90;12.19
43119;BME280;28729;49.838;8.650;2023-06-01T14:28:07;99701.09;;;43.97;11.90
43119;BME280;28729;49.838;8.650;2023-06-01T14:32:10;99702.88;;;43.44;11.90
43119;BME280;28729;49.838;8.650;2023-06-01T14:36:14;99685.56;;;43.63;12.47
43119;BME280;28729;49.838;8.650;2023-06-01T14:40:18;99685.72;;;44.70;11.98
43119;BME280;28729;49.838;8.650;2023-06-01T14:44:24;99683.19;;;44.07;11.61
43119;BME280;28729;49.838;8.650;2023-06-01T14:48:26;99677.91;;;43.07;12.09
43119;BME280;28729;49.838;8.650;2023-06-01T14:52:28;99672.50;;;43.58;11.63
43119;BME280;28729;49.838;8.650;2023-06-01T14:56:32;99663.97;;;42.83;12.52
43119;BME280;28729;49.838;8.650;2023-06-01T15:00:36;99658.16;;;41.35;13.47
43119;BME280;28729;49.838;8.650;2023-06-01T15:04:44;99651.94;;;41.84;13.17
43119;BME280;28729;49.838;8.650;2023-06-01T15:08:48;99651.31;;;42.02;13.04
43119;BME280;28729;49.838;8.650;2023-06-01T15:12:51;99645.63;;;42.86;12.45
43119;BME280;28729;49.838;8.650;2023-06-01T15:16:54;99644.22;;;43.00;12.87
43119;BME280;28729;49.838;8.650;2023-06-01T15:21:00;99635.91;;;40.42;13.63
43119;BME280;28729;49.838;8.650;2023-06-01T15:25:04;99630.97;;;37.67;15.68
43119;BME280;28729;49.838;8.650;2023-06-01T15:29:06;99622.53;;;35.37;17.54
43119;BME280;28729;49.838;8.650;2023-06-01T15:33:07;99624.53;;;33.93;18.91
43119;BME280;28729;49.838;8.650;2023-06-01T15:37:12;99613.56;;;32.77;19.94
43119;BME280;28729;49.838;8.650;2023-06-01T15:41:14;99617.19;;;32.56;20.11
43119;BME280;28729;49.838;8.650;2023-06-01T15:45:16;99612.28;;;31.69;20.77
43119;BME280;28729;49.838;8.650;2023-06-01T15:49:20;99618.13;;;30.87;22.42
43119;BME280;28729;49.838;8.650;2023-06-01T15:53:24;99606.22;;;30.37;23.06
43119;BME280;28729;49.838;8.650;2023-06-01T15:57:28;99608.78;;;29.86;24.05
43119;BME280;28729;49.838;8.650;2023-06-01T16:01:32;99610.00;;;29.58;24.61
43119;BME280;28729;49.838;8.650;2023-06-01T16:05:38;99599.66;;;29.20;24.65
43119;BME280;28729;49.838;8.650;2023-06-01T16:09:41;99595.56;;;28.94;25.06
43119;BME280;28729;49.838;8.650;2023-06-01T16:13:47;99597.91;;;28.89;25.93
43119;BME280;28729;49.838;8.650;2023-06-01T16:17:49;99591.34;;;28.84;26.93
43119;BME280;28729;49.838;8.650;2023-06-01T16:21:52;99587.44;;;28.70;26.88
43119;BME280;28729;49.838;8.650;2023-06-01T16:25:54;99588.41;;;28.77;26.48
43119;BME280;28729;49.838;8.650;2023-06-01T16:29:56;99574.47;;;28.69;26.82
43119;BME280;28729;49.838;8.650;2023-06-01T16:33:59;99576.09;;;28.47;27.21
43119;BME280;28729;49.838;8.650;2023-06-01T16:38:01;99572.28;;;28.39;27.94
43119;BME280;28729;49.838;8.650;2023-06-01T16:52:45;99581.13;;;28.37;29.09
43119;BME280;28729;49.838;8.650;2023-06-01T16:56:53;99572.22;;;28.16;29.85
43119;BME280;28729;49.838;8.650;2023-06-01T17:00:55;99578.94;;;27.88;31.06
43119;BME280;28729;49.838;8.650;2023-06-01T17:04:58;99571.53;;;27.64;31.80
43119;BME280;28729;49.838;8.650;2023-06-01T17:09:02;99576.91;;;27.18;32.21
43119;BME280;28729;49.838;8.650;2023-06-01T17:13:04;99577.38;;;26.89;31.52
43119;BME280;28729;49.838;8.650;2023-06-01T17:17:06;99580.22;;;26.73;31.52
43119;BME280;28729;49.838;8.650;2023-06-01T17:21:09;99577.09;;;26.62;31.12
43119;BME280;28729;49.838;8.650;2023-06-01T17:25:10;99572.09;;;26.87;31.32
43119;BME280;28729;49.838;8.650;2023-06-01T17:29:13;99577.94;;;26.78;31.28
43119;BME280;28729;49.838;8.650;2023-06-01T17:33:15;99569.53;;;26.82;31.45
43119;BME280;28729;49.838;8.650;2023-06-01T17:37:17;99577.75;;;26.87;32.07
43119;BME280;28729;49.838;8.650;2023-06-01T17:41:21;99583.13;;;26.76;32.26
43119;BME280;28729;49.838;8.650;2023-06-01T17:45:23;99582.69;;;26.46;32.21
43119;BME280;28729;49.838;8.650;2023-06-01T17:49:26;99588.19;;;26.11;32.76
43119;BME280;28729;49.838;8.650;2023-06-01T17:53:28;99597.31;;;25.92;32.79
43119;BME280;28729;49.838;8.650;2023-06-01T17:57:35;99589.13;;;25.62;33.20
43119;BME280;28729;49.838;8.650;2023-06-01T18:01:37;99596.94;;;25.41;33.51
43119;BME280;28729;49.838;8.650;2023-06-01T18:05:39;99602.34;;;25.21;34.13
43119;BME280;28729;49.838;8.650;2023-06-01T18:09:45;99608.56;;;25.02;34.38
43119;BME280;28729;49.838;8.650;2023-06-01T18:13:53;99601.25;;;24.77;35.42
43119;BME280;28729;49.838;8.650;2023-06-01T18:17:56;99615.03;;;24.45;35.46
43119;BME280;28729;49.838;8.650;2023-06-01T18:21:59;99616.28;;;24.15;35.92
43119;BME280;28729;49.838;8.650;2023-06-01T18:26:03;99615.69;;;23.88;36.69
43119;BME280;28729;49.838;8.650;2023-06-01T18:30:08;99608.81;;;23.56;37.34
43119;BME280;28729;49.838;8.650;2023-06-01T18:34:10;99611.66;;;23.26;37.98
43119;BME280;28729;49.838;8.650;2023-06-01T18:38:11;99614.88;;;23.07;38.24
43119;BME280;28729;49.838;8.650;2023-06-01T18:42:16;99617.28;;;22.88;38.40
43119;BME280;28729;49.838;8.650;2023-06-01T18:46:18;99621.94;;;22.66;39.35
43119;BME280;28729;49.838;8.650;2023-06-01T18:50:23;99629.78;;;22.43;39.80
43119;BME280;28729;49.838;8.650;2023-06-01T18:54:27;99646.50;;;22.22;40.71
43119;BME280;28729;49.838;8.650;2023-06-01T18:58:30;99640.72;;;22.01;41.21
43119;BME280;28729;49.838;8.650;2023-06-01T19:02:34;99651.09;;;21.83;41.14
43119;BME280;28729;49.838;8.650;2023-06-01T19:06:36;99649.41;;;21.65;41.56
43119;BME280;28729;49.838;8.650;2023-06-01T19:11:03;99661.59;;;21.52;42.83
43119;BME280;28729;49.838;8.650;2023-06-01T19:15:10;99661.34;;;21.31;42.93
43119;BME280;28729;49.838;8.650;2023-06-01T19:19:16;99667.25;;;21.12;43.43
43119;BME280;28729;49.838;8.650;2023-06-01T19:23:21;99659.44;;;21.00;43.16
43119;BME280;28729;49.838;8.650;2023-06-01T19:27:23;99668.44;;;20.88;43.20
43119;BME280;28729;49.838;8.650;2023-06-01T19:31:29;99671.47;;;20.69;44.61
43119;BME280;28729;49.838;8.650;2023-06-01T19:35:35;99678.41;;;20.49;45.39
43119;BME280;28729;49.838;8.650;2023-06-01T19:39:42;99683.06;;;20.32;45.95
43119;BME280;28729;49.838;8.650;2023-06-01T19:43:46;99695.47;;;20.17;46.60
43119;BME280;28729;49.838;8.650;2023-06-01T19:47:49;99691.97;;;19.97;46.48
43119;BME280;28729;49.838;8.650;2023-06-01T19:51:51;99699.69;;;19.78;46.55
43119;BME280;28729;49.838;8.650;2023-06-01T19:55:53;99700.84;;;19.63;47.53
43119;BME280;28729;49.838;8.650;2023-06-01T19:59:56;99711.22;;;19.49;49.48
43119;BME280;28729;49.838;8.650;2023-06-01T20:03:58;99708.72;;;19.33;49.66
43119;BME280;28729;49.838;8.650;2023-06-01T20:08:07;99714.59;;;19.18;49.75
43119;BME280;28729;49.838;8.650;2023-06-01T20:12:10;99725.78;;;19.04;50.68
43119;BME280;28729;49.838;8.650;2023-06-01T20:16:14;99721.53;;;18.93;50.80
43119;BME280;28729;49.838;8.650;2023-06-01T20:20:18;99722.91;;;18.77;51.95
43119;BME280;28729;49.838;8.650;2023-06-01T20:24:30;99729.81;;;18.65;52.39
43119;BME280;28729;49.838;8.650;2023-06-01T20:28:44;99733.91;;;18.54;52.94
43119;BME280;28729;49.838;8.650;2023-06-01T20:32:47;99733.22;;;18.43;52.09
43119;BME280;28729;49.838;8.650;2023-06-01T20:36:50;99752.59;;;18.35;53.39
43119;BME280;28729;49.838;8.650;2023-06-01T20:41:16;99745.56;;;18.24;54.33
43119;BME280;28729;49.838;8.650;2023-06-01T20:45:54;99747.13;;;18.11;54.68
43119;BME280;28729;49.838;8.650;2023-06-01T20:49:57;99757.59;;;18.00;54.67
43119;BME280;28729;49.838;8.650;2023-06-01T20:54:10;99754.34;;;17.93;55.35
43119;BME280;28729;49.838;8.650;2023-06-01T20:58:13;99756.47;;;17.82;55.20
43119;BME280;28729;49.838;8.650;2023-06-01T21:02:21;99766.00;;;17.76;56.07
43119;BME280;28729;49.838;8.650;2023-06-01T21:06:23;99760.75;;;17.69;55.35
43119;BME280;28729;49.838;8.650;2023-06-01T21:10:26;99770.31;;;17.63;56.49
43119;BME280;28729;49.838;8.650;2023-06-01T21:14:28;99779.34;;;17.55;57.64
43119;BME280;28729;49.838;8.650;2023-06-01T21:18:32;99777.66;;;17.54;57.40
43119;BME280;28729;49.838;8.650;2023-06-01T21:22:34;99783.84;;;17.51;57.22
43119;BME280;28729;49.838;8.650;2023-06-01T21:26:36;99788.41;;;17.42;57.29
43119;BME280;28729;49.838;8.650;2023-06-01T21:30:40;99779.91;;;17.28;58.49
43119;BME280;28729;49.838;8.650;2023-06-01T21:34:42;99788.09;;;17.19;59.05
43119;BME280;28729;49.838;8.650;2023-06-01T21:38:44;99796.00;;;17.07;59.89
43119;BME280;28729;49.838;8.650;2023-06-01T21:42:46;99800.03;;;16.96;60.95
43119;BME280;28729;49.838;8.650;2023-06-01T21:46:48;99799.28;;;16.85;62.02
43119;BME280;28729;49.838;8.650;2023-06-01T21:50:50;99799.38;;;16.70;62.12
43119;BME280;28729;49.838;8.650;2023-06-01T21:54:52;99798.69;;;16.54;63.76
43119;BME280;28729;49.838;8.650;2023-06-01T21:58:54;99806.53;;;16.41;63.83
43119;BME280;28729;49.838;8.650;2023-06-01T22:02:56;99810.22;;;16.32;64.57